sensor_id;sensor_type;location;lat;lon;timestamp;temperature;humidity
70986;DHT22;58645;43.068;25.610;2023-04-19T00:01:22;10.40;99.90
70986;DHT22;58645;43.068;25.610;2023-04-19T00:03:49;10.40;99.90
70986;DHT22;58645;43.068;25.610;2023-04-19T00:06:15;10.40;99.90
70986;DHT22;58645;43.068;25.610;2023-04-19T00:08:42;10.40;99.90
70986;DHT22;58645;43.068;25.610;2023-04-19T00:11:08;10.30;99.90
70986;DHT22;58645;43.068;25.610;2023-04-19T00:13:34;10.30;99.90
70986;DHT22;58645;43.068;25.610;2023-04-19T00:16:00;10.20;99.90
70986;DHT22;58645;43.068;25.610;2023-04-19T00:18:26;10.20;99.90
70986;DHT22;58645;43.068;25.610;2023-04-19T00:20:51;10.20;99.90
70986;DHT22;58645;43.068;25.610;2023-04-19T00:23:17;10.10;99.90
70986;DHT22;58645;43.068;25.610;2023-04-19T00:25:45;10.10;99.90
70986;DHT22;58645;43.068;25.610;2023-04-19T00:28:11;10.10;99.90
70986;DHT22;58645;43.068;25.610;2023-04-19T00:30:36;10.10;99.90
70986;DHT22;58645;43.068;25.610;2023-04-19T00:33:02;10.10;99.90
70986;DHT22;58645;43.068;25.610;2023-04-19T00:35:28;10.00;99.90
70986;DHT22;58645;43.068;25.610;2023-04-19T00:37:53;10.00;99.90
70986;DHT22;58645;43.068;25.610;2023-04-19T00:40:19;10.00;99.90
70986;DHT22;58645;43.068;25.610;2023-04-19T00:42:45;10.00;99.90
70986;DHT22;58645;43.068;25.610;2023-04-19T00:45:11;10.00;99.90
70986;DHT22;58645;43.068;25.610;2023-04-19T00:47:37;10.00;99.90
70986;DHT22;58645;43.068;25.610;2023-04-19T00:50:03;9.90;99.90
70986;DHT22;58645;43.068;25.610;2023-04-19T00:52:31;9.90;99.90
70986;DHT22;58645;43.068;25.610;2023-04-19T00:54:58;9.90;99.90
70986;DHT22;58645;43.068;25.610;2023-04-19T00:57:24;9.90;99.90
70986;DHT22;58645;43.068;25.610;2023-04-19T00:59:50;9.90;99.90
70986;DHT22;58645;43.068;25.610;2023-04-19T01:02:16;9.90;99.90
70986;DHT22;58645;43.068;25.610;2023-04-19T01:04:43;9.90;99.90
70986;DHT22;58645;43.068;25.610;2023-04-19T01:07:09;9.90;99.90
70986;DHT22;58645;43.068;25.610;2023-04-19T01:09:39;9.80;99.90
70986;DHT22;58645;43.068;25.610;2023-04-19T01:12:05;9.90;99.90
70986;DHT22;58645;43.068;25.610;2023-04-19T01:14:31;9.80;99.90
70986;DHT22;58645;43.068;25.610;2023-04-19T01:16:57;9.80;99.90
70986;DHT22;58645;43.068;25.610;2023-04-19T01:19:22;9.80;99.90
70986;DHT22;58645;43.068;25.610;2023-04-19T01:21:48;9.80;99.90
70986;DHT22;58645;43.068;25.610;2023-04-19T01:24:14;9.80;99.90
70986;DHT22;58645;43.068;25.610;2023-04-19T01:26:40;9.80;99.90
70986;DHT22;58645;43.068;25.610;2023-04-19T01:29:05;9.70;99.90
70986;DHT22;58645;43.068;25.610;2023-04-19T01:31:31;9.80;99.90
70986;DHT22;58645;43.068;25.610;2023-04-19T01:33:57;9.70;99.90
70986;DHT22;58645;43.068;25.610;2023-04-19T01:36:23;9.70;99.90
70986;DHT22;58645;43.068;25.610;2023-04-19T01:38:49;9.80;99.90
70986;DHT22;58645;43.068;25.610;2023-04-19T01:41:15;9.80;99.90
70986;DHT22;58645;43.068;25.610;2023-04-19T01:43:40;9.80;99.90
70986;DHT22;58645;43.068;25.610;2023-04-19T01:46:06;9.80;99.90
70986;DHT22;58645;43.068;25.610;2023-04-19T01:48:31;9.80;99.90
70986;DHT22;58645;43.068;25.610;2023-04-19T01:50:57;9.90;99.90
70986;DHT22;58645;43.068;25.610;2023-04-19T01:53:23;9.90;99.90
70986;DHT22;58645;43.068;25.610;2023-04-19T01:55:49;9.90;99.90
70986;DHT22;58645;43.068;25.610;2023-04-19T01:58:14;9.80;99.90
70986;DHT22;58645;43.068;25.610;2023-04-19T02:00:40;9.80;99.90
70986;DHT22;58645;43.068;25.610;2023-04-19T02:03:06;9.80;99.90
70986;DHT22;58645;43.068;25.610;2023-04-19T02:05:31;9.90;99.90
70986;DHT22;58645;43.068;25.610;2023-04-19T02:07:57;9.90;99.90
70986;DHT22;58645;43.068;25.610;2023-04-19T02:10:23;9.90;99.90
70986;DHT22;58645;43.068;25.610;2023-04-19T02:12:49;9.90;99.90
70986;DHT22;58645;43.068;25.610;2023-04-19T02:15:15;9.90;99.90
70986;DHT22;58645;43.068;25.610;2023-04-19T02:17:40;9.90;99.90
70986;DHT22;58645;43.068;25.610;2023-04-19T02:20:06;9.90;99.90
70986;DHT22;58645;43.068;25.610;2023-04-19T02:22:33;9.90;99.90
70986;DHT22;58645;43.068;25.610;2023-04-19T02:24:59;9.90;99.90
70986;DHT22;58645;43.068;25.610;2023-04-19T02:27:25;9.90;99.90
70986;DHT22;58645;43.068;25.610;2023-04-19T02:29:51;9.90;99.90
70986;DHT22;58645;43.068;25.610;2023-04-19T02:32:16;9.90;99.90
70986;DHT22;58645;43.068;25.610;2023-04-19T02:34:42;9.90;99.90
70986;DHT22;58645;43.068;25.610;2023-04-19T02:37:08;9.80;99.90
70986;DHT22;58645;43.068;25.610;2023-04-19T02:39:33;9.70;99.90
70986;DHT22;58645;43.068;25.610;2023-04-19T02:41:59;9.70;99.90
70986;DHT22;58645;43.068;25.610;2023-04-19T02:44:25;9.70;99.90
70986;DHT22;58645;43.068;25.610;2023-04-19T02:46:52;9.70;99.90
70986;DHT22;58645;43.068;25.610;2023-04-19T02:49:19;9.70;99.90
70986;DHT22;58645;43.068;25.610;2023-04-19T02:51:45;9.70;99.90
70986;DHT22;58645;43.068;25.610;2023-04-19T02:54:11;9.70;99.90
70986;DHT22;58645;43.068;25.610;2023-04-19T02:56:37;9.60;99.90
70986;DHT22;58645;43.068;25.610;2023-04-19T02:59:04;9.60;99.90
70986;DHT22;58645;43.068;25.610;2023-04-19T03:01:30;9.60;99.90
70986;DHT22;58645;43.068;25.610;2023-04-19T03:03:56;9.60;99.90
70986;DHT22;58645;43.068;25.610;2023-04-19T03:06:22;9.50;99.90
70986;DHT22;58645;43.068;25.610;2023-04-19T03:08:48;9.50;99.90
70986;DHT22;58645;43.068;25.610;2023-04-19T03:11:17;9.50;99.90
70986;DHT22;58645;43.068;25.610;2023-04-19T03:13:43;9.50;99.90
70986;DHT22;58645;43.068;25.610;2023-04-19T03:16:09;9.50;99.90
70986;DHT22;58645;43.068;25.610;2023-04-19T03:18:35;9.50;99.90
70986;DHT22;58645;43.068;25.610;2023-04-19T03:21:01;9.50;99.90
70986;DHT22;58645;43.068;25.610;2023-04-19T03:23:27;9.50;99.90
70986;DHT22;58645;43.068;25.610;2023-04-19T03:25:53;9.50;99.90
70986;DHT22;58645;43.068;25.610;2023-04-19T03:28:19;9.50;99.90
70986;DHT22;58645;43.068;25.610;2023-04-19T03:30:45;9.50;99.90
70986;DHT22;58645;43.068;25.610;2023-04-19T03:33:10;9.50;99.90
70986;DHT22;58645;43.068;25.610;2023-04-19T03:35:36;9.50;99.90
70986;DHT22;58645;43.068;25.610;2023-04-19T03:38:02;9.50;99.90
70986;DHT22;58645;43.068;25.610;2023-04-19T03:40:29;9.50;99.90
70986;DHT22;58645;43.068;25.610;2023-04-19T03:42:57;9.40;99.90
70986;DHT22;58645;43.068;25.610;2023-04-19T03:45:23;9.50;99.90
70986;DHT22;58645;43.068;25.610;2023-04-19T03:47:48;9.40;99.90
70986;DHT22;58645;43.068;25.610;2023-04-19T03:50:14;9.40;99.90
70986;DHT22;58645;43.068;25.610;2023-04-19T03:52:40;9.40;99.90
70986;DHT22;58645;43.068;25.610;2023-04-19T03:55:06;9.40;99.90
70986;DHT22;58645;43.068;25.610;2023-04-19T03:57:33;9.40;99.90
70986;DHT22;58645;43.068;25.610;2023-04-19T03:59:59;9.40;99.90
70986;DHT22;58645;43.068;25.610;2023-04-19T04:02:24;9.40;99.90
70986;DHT22;58645;43.068;25.610;2023-04-19T04:04:54;9.40;99.90
70986;DHT22;58645;43.068;25.610;2023-04-19T04:07:20;9.40;99.90
70986;DHT22;58645;43.068;25.610;2023-04-19T04:09:48;9.50;99.90
70986;DHT22;58645;43.068;25.610;2023-04-19T04:12:14;9.50;99.90
70986;DHT22;58645;43.068;25.610;2023-04-19T04:14:39;9.50;99.90
70986;DHT22;58645;43.068;25.610;2023-04-19T04:17:05;9.50;99.90
70986;DHT22;58645;43.068;25.610;2023-04-19T04:19:31;9.50;99.90
70986;DHT22;58645;43.068;25.610;2023-04-19T04:21:57;9.40;99.90
70986;DHT22;58645;43.068;25.610;2023-04-19T04:24:23;9.40;99.90
70986;DHT22;58645;43.068;25.610;2023-04-19T04:26:49;9.40;99.90
70986;DHT22;58645;43.068;25.610;2023-04-19T04:29:16;9.40;99.90
70986;DHT22;58645;43.068;25.610;2023-04-19T04:31:42;9.50;99.90
70986;DHT22;58645;43.068;25.610;2023-04-19T04:34:08;9.50;99.90
70986;DHT22;58645;43.068;25.610;2023-04-19T04:36:35;9.50;99.90
70986;DHT22;58645;43.068;25.610;2023-04-19T04:39:03;9.50;99.90
70986;DHT22;58645;43.068;25.610;2023-04-19T04:41:31;9.50;99.90
70986;DHT22;58645;43.068;25.610;2023-04-19T04:43:57;9.50;99.90
70986;DHT22;58645;43.068;25.610;2023-04-19T04:46:25;9.50;99.90
70986;DHT22;58645;43.068;25.610;2023-04-19T04:48:58;9.50;99.90
70986;DHT22;58645;43.068;25.610;2023-04-19T04:51:24;9.60;99.90
70986;DHT22;58645;43.068;25.610;2023-04-19T04:53:51;9.50;99.90
70986;DHT22;58645;43.068;25.610;2023-04-19T04:56:17;9.50;99.90
70986;DHT22;58645;43.068;25.610;2023-04-19T04:58:54;9.50;99.90
70986;DHT22;58645;43.068;25.610;2023-04-19T05:01:22;9.50;99.90
70986;DHT22;58645;43.068;25.610;2023-04-19T05:03:51;9.50;99.90
70986;DHT22;58645;43.068;25.610;2023-04-19T05:06:18;9.50;99.90
70986;DHT22;58645;43.068;25.610;2023-04-19T05:08:44;9.50;99.90
70986;DHT22;58645;43.068;25.610;2023-04-19T05:11:10;9.50;99.90
70986;DHT22;58645;43.068;25.610;2023-04-19T05:13:36;9.50;99.90
70986;DHT22;58645;43.068;25.610;2023-04-19T05:16:01;9.50;99.90
70986;DHT22;58645;43.068;25.610;2023-04-19T05:18:27;9.40;99.90
70986;DHT22;58645;43.068;25.610;2023-04-19T05:20:53;9.40;99.90
70986;DHT22;58645;43.068;25.610;2023-04-19T05:23:19;9.30;99.90
70986;DHT22;58645;43.068;25.610;2023-04-19T05:25:45;9.30;99.90
70986;DHT22;58645;43.068;25.610;2023-04-19T05:28:12;9.20;99.90
70986;DHT22;58645;43.068;25.610;2023-04-19T05:30:37;9.20;99.90
70986;DHT22;58645;43.068;25.610;2023-04-19T05:33:04;9.30;99.90
70986;DHT22;58645;43.068;25.610;2023-04-19T05:35:29;9.30;99.90
70986;DHT22;58645;43.068;25.610;2023-04-19T05:38:04;9.30;99.90
70986;DHT22;58645;43.068;25.610;2023-04-19T05:40:30;9.30;99.90
70986;DHT22;58645;43.068;25.610;2023-04-19T05:43:29;9.30;99.90
70986;DHT22;58645;43.068;25.610;2023-04-19T05:46:25;9.40;99.90
70986;DHT22;58645;43.068;25.610;2023-04-19T05:48:51;9.40;99.90
70986;DHT22;58645;43.068;25.610;2023-04-19T05:51:17;9.40;99.90
70986;DHT22;58645;43.068;25.610;2023-04-19T05:53:44;9.40;99.90
70986;DHT22;58645;43.068;25.610;2023-04-19T05:56:10;9.40;99.90
70986;DHT22;58645;43.068;25.610;2023-04-19T05:58:36;9.50;99.90
70986;DHT22;58645;43.068;25.610;2023-04-19T06:01:02;9.50;99.90
70986;DHT22;58645;43.068;25.610;2023-04-19T06:03:29;9.50;99.90
70986;DHT22;58645;43.068;25.610;2023-04-19T06:09:37;9.50;99.90
70986;DHT22;58645;43.068;25.610;2023-04-19T06:12:03;9.40;99.90
70986;DHT22;58645;43.068;25.610;2023-04-19T06:14:30;9.40;99.90
70986;DHT22;58645;43.068;25.610;2023-04-19T06:16:56;9.30;99.90
70986;DHT22;58645;43.068;25.610;2023-04-19T06:19:22;9.40;99.90
70986;DHT22;58645;43.068;25.610;2023-04-19T06:21:48;9.40;99.90
70986;DHT22;58645;43.068;25.610;2023-04-19T06:24:15;9.40;99.90
70986;DHT22;58645;43.068;25.610;2023-04-19T06:26:41;9.40;99.90
70986;DHT22;58645;43.068;25.610;2023-04-19T06:29:07;9.40;99.90
70986;DHT22;58645;43.068;25.610;2023-04-19T06:31:37;9.40;99.90
70986;DHT22;58645;43.068;25.610;2023-04-19T06:34:16;9.40;99.90
70986;DHT22;58645;43.068;25.610;2023-04-19T06:36:45;9.50;99.90
70986;DHT22;58645;43.068;25.610;2023-04-19T06:39:19;9.50;99.90
70986;DHT22;58645;43.068;25.610;2023-04-19T06:41:45;9.50;99.90
70986;DHT22;58645;43.068;25.610;2023-04-19T06:44:10;9.60;99.90
70986;DHT22;58645;43.068;25.610;2023-04-19T06:46:38;9.60;99.90
70986;DHT22;58645;43.068;25.610;2023-04-19T06:49:04;9.60;99.90
70986;DHT22;58645;43.068;25.610;2023-04-19T06:51:29;9.60;99.90
70986;DHT22;58645;43.068;25.610;2023-04-19T06:53:55;9.60;99.90
70986;DHT22;58645;43.068;25.610;2023-04-19T06:56:41;9.70;99.90
70986;DHT22;58645;43.068;25.610;2023-04-19T06:59:10;9.60;99.90
70986;DHT22;58645;43.068;25.610;2023-04-19T07:01:37;9.70;99.90
70986;DHT22;58645;43.068;25.610;2023-04-19T07:04:03;9.60;99.90
70986;DHT22;58645;43.068;25.610;2023-04-19T07:06:28;9.60;99.90
70986;DHT22;58645;43.068;25.610;2023-04-19T07:08:54;9.60;99.90
70986;DHT22;58645;43.068;25.610;2023-04-19T07:11:20;9.60;99.90
70986;DHT22;58645;43.068;25.610;2023-04-19T07:13:45;9.60;99.90
70986;DHT22;58645;43.068;25.610;2023-04-19T07:16:11;9.70;99.90
70986;DHT22;58645;43.068;25.610;2023-04-19T07:18:39;9.70;99.90
70986;DHT22;58645;43.068;25.610;2023-04-19T07:21:05;9.70;99.90
70986;DHT22;58645;43.068;25.610;2023-04-19T07:23:30;9.70;99.90
70986;DHT22;58645;43.068;25.610;2023-04-19T07:25:56;9.70;99.90
70986;DHT22;58645;43.068;25.610;2023-04-19T07:28:22;9.70;99.90
70986;DHT22;58645;43.068;25.610;2023-04-19T07:30:48;9.80;99.90
70986;DHT22;58645;43.068;25.610;2023-04-19T07:33:14;9.80;99.90
70986;DHT22;58645;43.068;25.610;2023-04-19T07:35:40;9.80;99.90
70986;DHT22;58645;43.068;25.610;2023-04-19T07:38:06;9.80;99.90
70986;DHT22;58645;43.068;25.610;2023-04-19T07:40:32;9.80;99.90
70986;DHT22;58645;43.068;25.610;2023-04-19T07:42:57;9.90;99.90
70986;DHT22;58645;43.068;25.610;2023-04-19T07:45:23;9.90;99.90
70986;DHT22;58645;43.068;25.610;2023-04-19T07:47:49;10.00;99.90
70986;DHT22;58645;43.068;25.610;2023-04-19T07:50:15;10.10;99.90
70986;DHT22;58645;43.068;25.610;2023-04-19T07:52:40;10.20;99.90
70986;DHT22;58645;43.068;25.610;2023-04-19T07:55:07;10.30;99.90
70986;DHT22;58645;43.068;25.610;2023-04-19T07:57:34;10.30;99.90
70986;DHT22;58645;43.068;25.610;2023-04-19T08:00:00;10.40;99.90
70986;DHT22;58645;43.068;25.610;2023-04-19T08:02:26;10.40;99.90
70986;DHT22;58645;43.068;25.610;2023-04-19T08:04:55;10.50;99.90
70986;DHT22;58645;43.068;25.610;2023-04-19T08:07:22;10.50;99.90
70986;DHT22;58645;43.068;25.610;2023-04-19T08:09:48;10.50;99.90
70986;DHT22;58645;43.068;25.610;2023-04-19T08:12:14;10.50;99.90
70986;DHT22;58645;43.068;25.610;2023-04-19T08:14:40;10.60;99.90
70986;DHT22;58645;43.068;25.610;2023-04-19T08:17:07;10.60;99.90
70986;DHT22;58645;43.068;25.610;2023-04-19T08:19:32;10.70;99.90
70986;DHT22;58645;43.068;25.610;2023-04-19T08:21:58;10.80;99.90
70986;DHT22;58645;43.068;25.610;2023-04-19T08:24:25;10.80;99.90
70986;DHT22;58645;43.068;25.610;2023-04-19T08:26:51;11.00;99.90
70986;DHT22;58645;43.068;25.610;2023-04-19T08:29:20;11.20;99.90
70986;DHT22;58645;43.068;25.610;2023-04-19T08:31:46;11.40;99.90
70986;DHT22;58645;43.068;25.610;2023-04-19T08:34:12;11.40;99.90
70986;DHT22;58645;43.068;25.610;2023-04-19T08:36:38;11.50;99.90
70986;DHT22;58645;43.068;25.610;2023-04-19T08:39:04;11.60;99.90
70986;DHT22;58645;43.068;25.610;2023-04-19T08:41:30;11.60;99.90
70986;DHT22;58645;43.068;25.610;2023-04-19T08:43:57;11.50;99.90
70986;DHT22;58645;43.068;25.610;2023-04-19T08:46:24;11.40;99.90
70986;DHT22;58645;43.068;25.610;2023-04-19T08:48:51;11.40;99.90
70986;DHT22;58645;43.068;25.610;2023-04-19T08:51:18;11.50;99.90
70986;DHT22;58645;43.068;25.610;2023-04-19T08:53:44;11.60;99.90
70986;DHT22;58645;43.068;25.610;2023-04-19T08:56:10;11.70;99.90
70986;DHT22;58645;43.068;25.610;2023-04-19T08:58:37;11.70;99.90
70986;DHT22;58645;43.068;25.610;2023-04-19T09:01:07;11.70;99.90
70986;DHT22;58645;43.068;25.610;2023-04-19T09:03:33;11.70;99.90
70986;DHT22;58645;43.068;25.610;2023-04-19T09:06:00;11.80;99.90
70986;DHT22;58645;43.068;25.610;2023-04-19T09:08:27;12.00;99.90
70986;DHT22;58645;43.068;25.610;2023-04-19T09:10:55;12.10;99.90
70986;DHT22;58645;43.068;25.610;2023-04-19T09:13:21;12.20;99.90
70986;DHT22;58645;43.068;25.610;2023-04-19T09:15:47;12.20;99.90
70986;DHT22;58645;43.068;25.610;2023-04-19T09:18:13;12.30;99.90
70986;DHT22;58645;43.068;25.610;2023-04-19T09:20:40;12.40;99.90
70986;DHT22;58645;43.068;25.610;2023-04-19T09:23:14;12.60;99.90
70986;DHT22;58645;43.068;25.610;2023-04-19T09:25:54;12.60;99.90
70986;DHT22;58645;43.068;25.610;2023-04-19T09:28:28;12.70;99.90
70986;DHT22;58645;43.068;25.610;2023-04-19T09:30:55;12.80;99.90
70986;DHT22;58645;43.068;25.610;2023-04-19T09:33:34;13.00;99.90
70986;DHT22;58645;43.068;25.610;2023-04-19T09:36:05;12.90;99.90
70986;DHT22;58645;43.068;25.610;2023-04-19T09:38:46;13.00;99.90
70986;DHT22;58645;43.068;25.610;2023-04-19T09:41:12;13.20;99.90
70986;DHT22;58645;43.068;25.610;2023-04-19T09:43:38;13.50;99.90
70986;DHT22;58645;43.068;25.610;2023-04-19T09:46:04;13.80;99.90
70986;DHT22;58645;43.068;25.610;2023-04-19T09:48:29;14.40;99.90
70986;DHT22;58645;43.068;25.610;2023-04-19T09:50:59;15.30;99.90
70986;DHT22;58645;43.068;25.610;2023-04-19T09:53:28;17.00;99.90
70986;DHT22;58645;43.068;25.610;2023-04-19T09:55:54;18.40;99.90
70986;DHT22;58645;43.068;25.610;2023-04-19T09:58:20;19.20;99.90
70986;DHT22;58645;43.068;25.610;2023-04-19T10:00:50;18.80;99.90
70986;DHT22;58645;43.068;25.610;2023-04-19T10:03:17;18.20;99.90
70986;DHT22;58645;43.068;25.610;2023-04-19T10:05:52;18.20;99.90
70986;DHT22;58645;43.068;25.610;2023-04-19T10:08:18;18.40;99.90
70986;DHT22;58645;43.068;25.610;2023-04-19T10:10:46;18.50;99.90
70986;DHT22;58645;43.068;25.610;2023-04-19T10:13:20;18.60;99.90
70986;DHT22;58645;43.068;25.610;2023-04-19T10:15:48;18.70;99.90
70986;DHT22;58645;43.068;25.610;2023-04-19T10:18:13;18.60;99.90
70986;DHT22;58645;43.068;25.610;2023-04-19T10:23:09;20.20;99.90
70986;DHT22;58645;43.068;25.610;2023-04-19T10:25:36;20.80;99.90
70986;DHT22;58645;43.068;25.610;2023-04-19T10:28:03;21.10;99.90
70986;DHT22;58645;43.068;25.610;2023-04-19T10:30:28;21.40;99.90
70986;DHT22;58645;43.068;25.610;2023-04-19T10:32:57;21.30;99.90
70986;DHT22;58645;43.068;25.610;2023-04-19T10:35:28;21.70;99.90
70986;DHT22;58645;43.068;25.610;2023-04-19T10:43:35;20.90;99.00
70986;DHT22;58645;43.068;25.610;2023-04-19T10:46:16;20.30;97.60
70986;DHT22;58645;43.068;25.610;2023-04-19T10:49:01;19.60;99.90
70986;DHT22;58645;43.068;25.610;2023-04-19T10:51:36;19.00;99.90
70986;DHT22;58645;43.068;25.610;2023-04-19T10:54:54;18.20;99.90
70986;DHT22;58645;43.068;25.610;2023-04-19T10:57:01;17.70;99.90
70986;DHT22;58645;43.068;25.610;2023-04-19T10:59:33;17.40;99.90
70986;DHT22;58645;43.068;25.610;2023-04-19T11:02:02;18.00;99.90
70986;DHT22;58645;43.068;25.610;2023-04-19T11:07:04;18.70;99.90
70986;DHT22;58645;43.068;25.610;2023-04-19T11:09:36;18.90;99.90
70986;DHT22;58645;43.068;25.610;2023-04-19T11:12:13;19.70;99.90
70986;DHT22;58645;43.068;25.610;2023-04-19T11:14:48;20.50;99.50
70986;DHT22;58645;43.068;25.610;2023-04-19T11:17:24;21.10;99.90
70986;DHT22;58645;43.068;25.610;2023-04-19T11:20:01;20.70;91.50
70986;DHT22;58645;43.068;25.610;2023-04-19T11:22:44;20.10;92.10
70986;DHT22;58645;43.068;25.610;2023-04-19T11:27:40;18.90;96.40
70986;DHT22;58645;43.068;25.610;2023-04-19T11:30:17;18.50;96.40
70986;DHT22;58645;43.068;25.610;2023-04-19T11:32:55;18.30;91.30
70986;DHT22;58645;43.068;25.610;2023-04-19T11:35:23;17.90;93.30
70986;DHT22;58645;43.068;25.610;2023-04-19T11:37:49;18.00;93.70
70986;DHT22;58645;43.068;25.610;2023-04-19T11:40:16;18.00;93.60
70986;DHT22;58645;43.068;25.610;2023-04-19T11:42:43;18.20;93.60
70986;DHT22;58645;43.068;25.610;2023-04-19T11:45:09;18.40;93.90
70986;DHT22;58645;43.068;25.610;2023-04-19T11:47:48;18.60;89.50
70986;DHT22;58645;43.068;25.610;2023-04-19T11:50:37;19.20;88.30
70986;DHT22;58645;43.068;25.610;2023-04-19T11:55:40;20.70;80.50
70986;DHT22;58645;43.068;25.610;2023-04-19T11:58:07;21.10;72.30
70986;DHT22;58645;43.068;25.610;2023-04-19T12:00:35;21.30;76.80
70986;DHT22;58645;43.068;25.610;2023-04-19T12:03:01;21.40;72.70
70986;DHT22;58645;43.068;25.610;2023-04-19T12:05:27;21.80;69.00
70986;DHT22;58645;43.068;25.610;2023-04-19T12:08:00;22.30;67.90
70986;DHT22;58645;43.068;25.610;2023-04-19T12:10:27;22.10;65.50
70986;DHT22;58645;43.068;25.610;2023-04-19T12:12:53;21.80;66.50
70986;DHT22;58645;43.068;25.610;2023-04-19T12:15:19;21.20;67.80
70986;DHT22;58645;43.068;25.610;2023-04-19T12:18:00;20.60;68.00
70986;DHT22;58645;43.068;25.610;2023-04-19T12:20:34;20.30;68.60
70986;DHT22;58645;43.068;25.610;2023-04-19T12:23:00;19.50;69.50
70986;DHT22;58645;43.068;25.610;2023-04-19T12:25:31;19.10;69.30
70986;DHT22;58645;43.068;25.610;2023-04-19T12:28:02;18.60;73.30
70986;DHT22;58645;43.068;25.610;2023-04-19T12:30:28;18.30;74.10
70986;DHT22;58645;43.068;25.610;2023-04-19T12:32:54;17.90;78.00
70986;DHT22;58645;43.068;25.610;2023-04-19T12:35:24;17.60;80.50
70986;DHT22;58645;43.068;25.610;2023-04-19T12:37:53;17.30;82.00
70986;DHT22;58645;43.068;25.610;2023-04-19T12:40:19;17.00;85.50
70986;DHT22;58645;43.068;25.610;2023-04-19T12:42:45;16.80;85.60
70986;DHT22;58645;43.068;25.610;2023-04-19T12:45:12;16.50;89.50
70986;DHT22;58645;43.068;25.610;2023-04-19T12:47:38;16.40;91.80
70986;DHT22;58645;43.068;25.610;2023-04-19T12:50:04;16.20;92.20
70986;DHT22;58645;43.068;25.610;2023-04-19T12:52:30;16.00;95.30
70986;DHT22;58645;43.068;25.610;2023-04-19T12:54:56;15.90;93.50
70986;DHT22;58645;43.068;25.610;2023-04-19T12:57:22;15.90;94.40
70986;DHT22;58645;43.068;25.610;2023-04-19T12:59:47;16.20;90.90
70986;DHT22;58645;43.068;25.610;2023-04-19T13:02:13;16.40;92.20
70986;DHT22;58645;43.068;25.610;2023-04-19T13:04:39;16.40;93.40
70986;DHT22;58645;43.068;25.610;2023-04-19T13:07:05;16.40;93.30
70986;DHT22;58645;43.068;25.610;2023-04-19T13:09:30;16.30;91.50
70986;DHT22;58645;43.068;25.610;2023-04-19T13:11:57;16.30;90.00
70986;DHT22;58645;43.068;25.610;2023-04-19T13:14:22;16.40;90.20
70986;DHT22;58645;43.068;25.610;2023-04-19T13:16:49;16.20;93.30
70986;DHT22;58645;43.068;25.610;2023-04-19T13:19:20;16.10;95.80
70986;DHT22;58645;43.068;25.610;2023-04-19T13:21:46;16.00;95.90
70986;DHT22;58645;43.068;25.610;2023-04-19T13:24:12;16.00;97.30
70986;DHT22;58645;43.068;25.610;2023-04-19T13:26:37;15.80;97.90
70986;DHT22;58645;43.068;25.610;2023-04-19T13:29:03;15.80;97.00
70986;DHT22;58645;43.068;25.610;2023-04-19T13:31:29;15.90;96.40
70986;DHT22;58645;43.068;25.610;2023-04-19T13:33:56;15.90;97.20
70986;DHT22;58645;43.068;25.610;2023-04-19T13:36:22;15.90;99.40
70986;DHT22;58645;43.068;25.610;2023-04-19T13:38:47;16.00;98.90
70986;DHT22;58645;43.068;25.610;2023-04-19T13:41:13;16.20;96.50
70986;DHT22;58645;43.068;25.610;2023-04-19T13:43:40;16.30;95.90
70986;DHT22;58645;43.068;25.610;2023-04-19T13:46:06;16.40;93.40
70986;DHT22;58645;43.068;25.610;2023-04-19T13:48:31;16.40;93.80
70986;DHT22;58645;43.068;25.610;2023-04-19T13:50:58;16.40;90.60
70986;DHT22;58645;43.068;25.610;2023-04-19T13:53:25;16.50;91.80
70986;DHT22;58645;43.068;25.610;2023-04-19T13:55:51;16.50;90.30
70986;DHT22;58645;43.068;25.610;2023-04-19T13:58:18;16.50;90.10
70986;DHT22;58645;43.068;25.610;2023-04-19T14:00:46;16.50;90.50
70986;DHT22;58645;43.068;25.610;2023-04-19T14:03:13;16.40;88.90
70986;DHT22;58645;43.068;25.610;2023-04-19T14:05:39;16.30;88.50
70986;DHT22;58645;43.068;25.610;2023-04-19T14:08:05;16.20;87.90
70986;DHT22;58645;43.068;25.610;2023-04-19T14:10:30;16.00;87.70
70986;DHT22;58645;43.068;25.610;2023-04-19T14:12:56;16.00;88.30
70986;DHT22;58645;43.068;25.610;2023-04-19T14:15:22;15.80;89.70
70986;DHT22;58645;43.068;25.610;2023-04-19T14:17:50;15.70;90.60
70986;DHT22;58645;43.068;25.610;2023-04-19T14:20:16;15.80;93.20
70986;DHT22;58645;43.068;25.610;2023-04-19T14:22:42;15.70;93.10
70986;DHT22;58645;43.068;25.610;2023-04-19T14:25:09;15.60;96.80
70986;DHT22;58645;43.068;25.610;2023-04-19T14:27:34;15.60;95.10
70986;DHT22;58645;43.068;25.610;2023-04-19T14:30:00;15.50;95.70
70986;DHT22;58645;43.068;25.610;2023-04-19T14:32:26;15.50;94.10
70986;DHT22;58645;43.068;25.610;2023-04-19T14:34:53;15.40;96.50
70986;DHT22;58645;43.068;25.610;2023-04-19T14:37:21;15.20;97.20
70986;DHT22;58645;43.068;25.610;2023-04-19T14:39:47;15.20;97.10
70986;DHT22;58645;43.068;25.610;2023-04-19T14:42:13;15.10;99.00
70986;DHT22;58645;43.068;25.610;2023-04-19T14:44:39;15.00;99.30
70986;DHT22;58645;43.068;25.610;2023-04-19T14:47:05;15.00;99.60
70986;DHT22;58645;43.068;25.610;2023-04-19T14:49:31;15.00;99.90
70986;DHT22;58645;43.068;25.610;2023-04-19T14:51:57;14.90;99.90
70986;DHT22;58645;43.068;25.610;2023-04-19T14:54:22;14.80;99.90
70986;DHT22;58645;43.068;25.610;2023-04-19T14:56:49;14.80;99.90
70986;DHT22;58645;43.068;25.610;2023-04-19T14:59:15;14.80;99.90
70986;DHT22;58645;43.068;25.610;2023-04-19T15:01:40;14.80;99.90
70986;DHT22;58645;43.068;25.610;2023-04-19T15:04:06;15.00;99.90
70986;DHT22;58645;43.068;25.610;2023-04-19T15:06:32;15.10;99.90
70986;DHT22;58645;43.068;25.610;2023-04-19T15:08:58;15.10;99.90
70986;DHT22;58645;43.068;25.610;2023-04-19T15:11:24;15.10;99.90
70986;DHT22;58645;43.068;25.610;2023-04-19T15:13:50;15.10;99.90
70986;DHT22;58645;43.068;25.610;2023-04-19T15:16:16;15.20;99.90
70986;DHT22;58645;43.068;25.610;2023-04-19T15:18:41;15.20;99.90
70986;DHT22;58645;43.068;25.610;2023-04-19T15:21:07;15.30;99.90
70986;DHT22;58645;43.068;25.610;2023-04-19T15:23:33;15.30;99.90
70986;DHT22;58645;43.068;25.610;2023-04-19T15:25:58;15.30;99.90
70986;DHT22;58645;43.068;25.610;2023-04-19T15:28:25;15.20;99.90
70986;DHT22;58645;43.068;25.610;2023-04-19T15:31:01;15.10;99.90
70986;DHT22;58645;43.068;25.610;2023-04-19T15:33:28;15.00;99.90
70986;DHT22;58645;43.068;25.610;2023-04-19T15:35:54;14.90;99.90
70986;DHT22;58645;43.068;25.610;2023-04-19T15:38:30;14.80;99.90
70986;DHT22;58645;43.068;25.610;2023-04-19T15:40:58;14.80;99.90
70986;DHT22;58645;43.068;25.610;2023-04-19T15:43:24;14.70;99.90